Time;durP1;ratioP1;P1;durP2;ratioP2;P2;SDS_P1;SDS_P2;PMS_P1;PMS_P2;Temp;Humidity;BMP_temperature;BMP_pressure;BME280_temperature;BME280_humidity;BME280_pressure;Samples;Min_cycle;Max_cycle;Signal;HPM_P1;HPM_P2
2022/12/20 00:02:03;;;;;;;4.28;2.72;;;;;;;1.51;64.65;101722.66;4363629;32;32666;-90
2022/12/20 00:04:33;;;;;;;1.62;1.52;;;;;;;1.46;65.12;101726.00;4344885;33;34068;-90
2022/12/20 00:07:01;;;;;;;1.10;1.10;;;;;;;1.10;65.79;101732.06;4340735;32;33062;-90
2022/12/20 00:09:29;;;;;;;0.82;0.82;;;;;;;1.37;65.33;101749.19;4349875;32;32972;-90
2022/12/20 00:11:57;;;;;;;4.37;2.05;;;;;;;1.17;66.05;101749.56;4311195;33;33259;-89
2022/12/20 00:14:24;;;;;;;4.95;4.53;;;;;;;1.05;66.70;101741.47;4334384;33;33422;-90
2022/12/20 00:16:52;;;;;;;0.93;0.93;;;;;;;1.31;66.25;101751.66;4353054;32;33956;-90
2022/12/20 00:19:21;;;;;;;0.88;0.82;;;;;;;1.59;64.79;101748.00;4343013;33;32798;-90
2022/12/20 00:21:49;;;;;;;1.75;1.60;;;;;;;1.35;65.40;101743.09;4324071;33;32710;-90
2022/12/20 00:24:17;;;;;;;2.00;1.90;;;;;;;1.76;64.31;101747.56;4351398;32;32042;-90
2022/12/20 00:26:53;;;;;;;2.67;2.55;;;;;;;1.95;63.43;101745.41;4356644;32;33488;-90
2022/12/20 00:29:21;;;;;;;3.55;3.35;;;;;;;1.55;64.64;101741.84;4327127;33;33060;-88
2022/12/20 00:31:49;;;;;;;1.90;1.77;;;;;;;1.37;65.14;101731.84;4338034;33;32285;-89
2022/12/20 00:34:18;;;;;;;3.50;2.62;;;;;;;1.30;65.68;101723.88;4357084;32;32133;-89
2022/12/20 00:36:47;;;;;;;0.30;0.30;;;;;;;1.35;65.29;101723.12;4347366;33;33036;-89
2022/12/20 00:39:14;;;;;;;0.45;0.45;;;;;;;1.32;65.40;101717.84;4323737;33;32969;-89
2022/12/20 00:41:45;;;;;;;3.12;2.92;;;;;;;1.33;65.58;101718.72;4345508;33;34168;-89
2022/12/20 00:44:13;;;;;;;3.25;3.03;;;;;;;1.62;64.60;101717.72;4323656;33;31644;-89
2022/12/20 00:46:42;;;;;;;4.07;2.30;;;;;;;1.63;64.08;101724.69;4341768;32;32773;-89
2022/12/20 00:49:10;;;;;;;1.17;1.17;;;;;;;1.52;64.80;101715.75;4323737;33;33972;-90
2022/12/20 00:51:38;;;;;;;0.77;0.77;;;;;;;1.43;65.10;101710.31;4347713;32;32090;-90
2022/12/20 00:54:05;;;;;;;2.95;2.75;;;;;;;1.09;66.26;101706.84;4348038;33;32320;-90
2022/12/20 00:56:33;;;;;;;1.98;1.87;;;;;;;1.62;64.80;101701.22;4331999;33;32364;-89
2022/12/20 00:59:01;;;;;;;2.15;1.95;;;;;;;1.77;63.67;101692.03;4348255;32;33265;-90
2022/12/20 01:01:33;;;;;;;3.08;2.65;;;;;;;1.55;64.67;101689.78;4331411;33;32935;-90
2022/12/20 01:04:01;;;;;;;2.80;2.22;;;;;;;1.18;65.50;101695.81;4360227;32;33198;-89
2022/12/20 01:06:31;;;;;;;1.83;1.73;;;;;;;1.81;63.91;101686.91;4356267;32;32237;-89
2022/12/20 01:09:00;;;;;;;5.10;4.05;;;;;;;1.53;64.56;101694.06;4335597;33;35433;-90
2022/12/20 01:11:31;;;;;;;0.90;0.90;;;;;;;1.59;64.71;101691.59;4319432;33;32676;-90
2022/12/20 01:14:03;;;;;;;0.90;0.82;;;;;;;1.79;63.67;101685.13;4347737;33;32174;-89
2022/12/20 01:16:38;;;;;;;1.95;1.85;;;;;;;1.84;63.71;101692.16;4356682;32;32818;-90
2022/12/20 01:19:07;;;;;;;4.78;3.92;;;;;;;1.80;63.76;101691.19;4356734;32;33330;-89
2022/12/20 01:21:35;;;;;;;4.03;3.08;;;;;;;1.77;63.58;101692.03;4362366;32;33042;-89
2022/12/20 01:24:03;;;;;;;5.12;2.42;;;;;;;1.73;63.90;101695.41;4362396;32;33097;-89
2022/12/20 01:26:31;;;;;;;0.85;0.85;;;;;;;1.42;64.64;101692.91;4362683;32;34503;-90
2022/12/20 01:28:59;;;;;;;2.60;1.60;;;;;;;1.15;65.57;101700.97;4363012;32;33725;-89
2022/12/20 01:31:28;;;;;;;3.33;3.08;;;;;;;1.54;64.66;101698.44;4362940;32;33617;-90
2022/12/20 01:33:56;;;;;;;1.52;1.48;;;;;;;1.36;64.84;101678.03;4362812;32;33365;-90
2022/12/20 01:36:33;;;;;;;2.97;2.12;;;;;;;1.59;63.96;101670.78;4350493;32;33832;-89
2022/12/20 01:39:04;;;;;;;1.70;1.60;;;;;;;1.86;63.55;101659.22;4353314;32;33596;-88
2022/12/20 01:41:34;;;;;;;1.52;1.42;;;;;;;1.71;63.81;101655.44;4364763;32;33828;-88
2022/12/20 01:44:05;;;;;;;2.72;1.95;;;;;;;1.42;64.91;101653.87;4362583;32;32788;-88
2022/12/20 01:46:35;;;;;;;1.35;1.35;;;;;;;1.50;64.42;101654.94;4361853;32;34556;-88
2022/12/20 01:49:07;;;;;;;0.95;0.95;;;;;;;1.59;64.35;101649.94;4353734;32;32256;-88
2022/12/20 01:51:39;;;;;;;1.30;1.30;;;;;;;1.76;63.33;101646.00;4349741;32;36145;-90
2022/12/20 01:54:10;;;;;;;5.70;1.50;;;;;;;1.50;64.28;101649.75;4338319;33;32760;-87
2022/12/20 01:56:40;;;;;;;1.67;1.35;;;;;;;1.75;63.52;101631.19;4352644;32;33907;-87
2022/12/20 01:59:08;;;;;;;5.20;4.90;;;;;;;1.25;65.01;101623.16;4350685;32;33733;-88
2022/12/20 02:01:36;;;;;;;1.30;1.08;;;;;;;1.53;63.82;101626.37;4348970;32;33616;-88
2022/12/20 02:04:04;;;;;;;3.65;2.97;;;;;;;1.67;63.62;101619.75;4347106;32;33489;-88
2022/12/20 02:06:32;;;;;;;1.30;1.08;;;;;;;1.52;64.22;101622.03;4336002;33;33636;-88
2022/12/20 02:09:02;;;;;;;1.27;1.17;;;;;;;0.84;65.98;101616.06;4346980;33;34816;-91
2022/12/20 02:12:15;;;;;;;2.30;1.02;;;;;;;0.95;65.92;101606.78;4347719;32;32877;-91
2022/12/20 02:15:40;;;;;;;0.32;0.32;;;;;;;1.73;63.68;101605.97;4398476;32;32307;-90
2022/12/20 02:18:12;;;;;;;1.95;1.85;;;;;;;1.12;64.85;101600.28;4367666;32;32129;-88
2022/12/20 02:21:02;;;;;;;2.95;2.72;;;;;;;1.36;64.31;101601.69;4388059;32;34040;-88
2022/12/20 02:23:58;;;;;;;9.95;6.28;;;;;;;1.36;64.56;101601.69;4375382;32;32466;-88
2022/12/20 02:26:42;;;;;;;1.15;1.15;;;;;;;1.43;64.48;101608.81;4376101;32;33309;-88
2022/12/20 02:30:03;;;;;;;4.35;3.33;;;;;;;1.59;63.67;101608.28;4380205;32;33228;-88
2022/12/20 02:32:49;;;;;;;0.50;0.50;;;;;;;1.32;64.53;101610.28;4368085;32;32484;-88
2022/12/20 02:35:23;;;;;;;1.00;1.00;;;;;;;1.88;62.92;101611.50;4368789;32;33079;-88
2022/12/20 02:37:54;;;;;;;4.22;2.80;;;;;;;1.86;62.54;101599.31;4375984;32;33383;-89
2022/12/20 02:40:27;;;;;;;2.33;2.15;;;;;;;1.70;62.84;101600.69;4386100;32;34651;-89
2022/12/20 02:42:58;;;;;;;5.30;2.45;;;;;;;1.76;63.00;101591.31;4375425;32;33581;-90
2022/12/20 02:45:32;;;;;;;2.95;2.70;;;;;;;1.88;62.15;101587.19;4376738;32;33574;-89
2022/12/20 02:48:07;;;;;;;0.65;0.65;;;;;;;1.77;62.62;101600.88;4382978;32;32855;-89
2022/12/20 02:50:46;;;;;;;2.28;2.17;;;;;;;1.92;62.29;101592.50;4389500;32;32773;-89
2022/12/20 02:53:15;;;;;;;4.32;3.22;;;;;;;1.39;63.93;101588.75;4361969;32;33717;-89
2022/12/20 02:55:47;;;;;;;2.67;2.47;;;;;;;1.47;64.09;101592.38;4361612;32;33164;-90
2022/12/20 02:58:25;;;;;;;1.60;1.55;;;;;;;1.56;63.72;101591.72;4380949;32;32061;-90
2022/12/20 03:00:55;;;;;;;3.55;2.25;;;;;;;1.53;63.92;101576.91;4353190;32;33315;-90
2022/12/20 03:03:25;;;;;;;2.62;2.42;;;;;;;1.12;64.86;101573.38;4367289;32;32909;-89
2022/12/20 03:05:54;;;;;;;1.75;1.65;;;;;;;1.26;64.81;101574.59;4366963;32;32806;-90
2022/12/20 03:08:23;;;;;;;4.87;3.75;;;;;;;1.12;65.28;101568.19;4367114;32;33568;-89
2022/12/20 03:10:53;;;;;;;3.83;1.17;;;;;;;0.78;66.63;101567.38;4354216;32;32778;-89
2022/12/20 03:13:23;;;;;;;1.52;1.42;;;;;;;1.50;64.29;101569.03;4359755;32;33426;-89
2022/12/20 03:15:53;;;;;;;0.90;0.88;;;;;;;1.59;63.82;101577.03;4350941;32;33575;-90
2022/12/20 03:18:21;;;;;;;1.83;1.73;;;;;;;1.22;64.49;101572.75;4354745;32;32293;-89
2022/12/20 03:20:49;;;;;;;0.95;0.95;;;;;;;1.17;65.34;101572.63;4353789;32;32303;-90
2022/12/20 03:23:18;;;;;;;2.47;1.75;;;;;;;1.57;63.91;101562.22;4342075;32;33182;-90
2022/12/20 03:25:46;;;;;;;3.58;3.33;;;;;;;1.36;64.35;101566.13;4354009;32;33350;-90
2022/12/20 03:28:15;;;;;;;1.80;1.70;;;;;;;1.24;64.45;101561.53;4354113;32;32773;-90
2022/12/20 03:30:44;;;;;;;2.12;2.03;;;;;;;1.21;65.02;101555.37;4338678;32;32640;-91
2022/12/20 03:33:24;;;;;;;3.50;2.67;;;;;;;1.50;64.04;101556.91;4369239;32;33041;-91
2022/12/20 03:36:22;;;;;;;2.12;2.00;;;;;;;1.21;64.78;101563.19;4346605;33;33972;-89
2022/12/20 03:39:09;;;;;;;0.85;0.85;;;;;;;0.84;65.75;101564.06;4335922;33;32666;-89
2022/12/20 03:41:59;;;;;;;4.25;3.90;;;;;;;1.43;64.44;101556.75;4346594;33;32860;-90
2022/12/20 03:44:27;;;;;;;1.85;1.75;;;;;;;1.77;63.29;101567.00;4361441;32;34732;-90
2022/12/20 03:46:56;;;;;;;1.23;1.15;;;;;;;1.91;62.44;101569.91;4336990;33;33291;-90
2022/12/20 03:49:41;;;;;;;0.40;0.40;;;;;;;1.88;62.17;101566.34;4359713;32;32273;-89
2022/12/20 03:52:11;;;;;;;1.92;1.67;;;;;;;1.79;62.65;101570.50;4349345;33;32224;-89
2022/12/20 03:54:43;;;;;;;1.55;1.45;;;;;;;1.19;64.73;101573.56;4348612;33;33624;-89
2022/12/20 03:57:27;;;;;;;0.85;0.85;;;;;;;1.36;64.22;101568.72;4367203;32;33332;-89
2022/12/20 03:59:56;;;;;;;1.73;1.60;;;;;;;1.91;62.38;101559.47;4360782;32;33405;-88
2022/12/20 04:02:25;;;;;;;0.00;0.00;;;;;;;1.85;62.53;101554.12;4360568;32;33799;-88
2022/12/20 04:04:55;;;;;;;0.52;0.52;;;;;;;1.76;62.50;101554.84;4348457;33;33755;-88
2022/12/20 04:07:23;;;;;;;3.17;2.83;;;;;;;1.62;63.17;101556.28;4348270;33;32801;-88
2022/12/20 04:09:52;;;;;;;0.37;0.37;;;;;;;1.82;62.57;101543.66;4348292;33;32869;-88
2022/12/20 04:12:23;;;;;;;5.47;2.65;;;;;;;1.97;62.13;101530.06;4346829;33;33499;-86
2022/12/20 04:14:54;;;;;;;0.62;0.62;;;;;;;1.72;62.61;101526.09;4356446;32;33329;-86
2022/12/20 04:17:24;;;;;;;2.17;2.00;;;;;;;1.91;62.14;101516.94;4358939;32;34508;-86
2022/12/20 04:19:54;;;;;;;3.10;1.67;;;;;;;1.90;61.91;101517.75;4353885;32;32814;-87
2022/12/20 04:22:23;;;;;;;1.27;1.17;;;;;;;1.53;63.12;101509.22;4359637;32;33544;-89
2022/12/20 04:24:52;;;;;;;0.22;0.22;;;;;;;1.64;62.98;101497.28;4348704;33;33291;-89
2022/12/20 04:27:20;;;;;;;3.10;1.52;;;;;;;1.58;63.25;101498.91;4347566;33;33957;-89
2022/12/20 04:29:49;;;;;;;3.08;2.78;;;;;;;1.68;63.11;101493.03;4361074;32;32109;-89
2022/12/20 04:32:21;;;;;;;0.73;0.73;;;;;;;1.59;63.33;101498.94;4347951;33;32856;-88
2022/12/20 04:34:49;;;;;;;1.33;1.25;;;;;;;1.91;62.30;101496.97;4374030;32;34204;-87
2022/12/20 04:37:18;;;;;;;3.83;2.92;;;;;;;1.51;63.57;101500.50;4355104;32;33238;-88
2022/12/20 04:39:48;;;;;;;2.20;2.03;;;;;;;1.71;62.94;101493.97;4365411;32;32568;-87
2022/12/20 04:42:17;;;;;;;0.43;0.43;;;;;;;1.66;63.12;101490.41;4365518;32;32478;-85
2022/12/20 04:44:45;;;;;;;0.30;0.30;;;;;;;1.34;64.59;101502.78;4359984;32;32588;-85
2022/12/20 04:47:13;;;;;;;0.20;0.20;;;;;;;1.63;63.44;101500.75;4367427;32;34257;-84
2022/12/20 04:49:42;;;;;;;0.50;0.50;;;;;;;1.47;64.04;101507.38;4366615;32;33135;-84
2022/12/20 04:55:01;;;;;;;0.30;0.30;;;;;;;1.44;64.17;101507.31;4362199;32;34771;-84
2022/12/20 04:57:30;;;;;;;4.30;3.92;;;;;;;1.64;63.51;101518.13;4363991;32;33456;-86
2022/12/20 04:59:58;;;;;;;1.10;1.10;;;;;;;1.91;62.52;101516.94;4348959;32;33539;-86
2022/12/20 05:02:27;;;;;;;0.82;0.82;;;;;;;2.04;62.04;101509.38;4363638;32;34647;-86
2022/12/20 05:04:57;;;;;;;0.35;0.35;;;;;;;1.81;62.69;101522.81;4357225;32;33668;-87
2022/12/20 05:07:25;;;;;;;1.95;1.85;;;;;;;1.85;62.53;101524.59;4348232;32;34031;-86
2022/12/20 05:09:54;;;;;;;0.52;0.52;;;;;;;2.05;61.83;101521.53;4353914;32;32215;-87
2022/12/20 05:12:22;;;;;;;1.33;1.27;;;;;;;1.95;61.93;101524.81;4369260;32;33889;-87
2022/12/20 05:14:55;;;;;;;1.98;1.87;;;;;;;1.89;62.49;101529.03;4360986;32;33334;-87
2022/12/20 05:17:27;;;;;;;2.58;1.85;;;;;;;1.83;62.61;101528.91;4354967;32;32903;-87
2022/12/20 05:19:57;;;;;;;1.10;1.05;;;;;;;1.73;62.94;101535.66;4355594;32;32651;-86
2022/12/20 05:28:14;;;;;;;6.15;2.72;;;;;;;1.94;62.34;101538.69;4352864;32;32359;-86
2022/12/20 05:30:42;;;;;;;1.87;1.40;;;;;;;2.00;62.06;101537.94;4364481;32;33340;-87
2022/12/20 05:33:10;;;;;;;0.40;0.40;;;;;;;2.25;61.43;101532.31;4343378;32;325429;-86
2022/12/20 05:35:41;;;;;;;1.55;1.40;;;;;;;2.19;61.36;101533.94;4365840;32;33825;-87
2022/12/20 05:38:10;;;;;;;1.23;1.23;;;;;;;1.92;62.46;101534.31;4366392;32;33689;-87
2022/12/20 05:40:39;;;;;;;0.60;0.60;;;;;;;2.02;61.96;101533.62;4361365;32;33030;-88
2022/12/20 05:43:09;;;;;;;1.20;1.20;;;;;;;2.05;61.69;101533.69;4349647;32;33939;-87
2022/12/20 05:45:38;;;;;;;1.27;1.17;;;;;;;1.83;62.62;101534.13;4359751;32;34207;-87
2022/12/20 05:52:16;;;;;;;2.25;2.05;;;;;;;1.96;62.20;101529.19;4349801;33;35071;-89
2022/12/20 05:54:47;;;;;;;4.82;1.85;;;;;;;1.88;62.49;101530.75;4360779;32;32759;-89
2022/12/20 05:57:16;;;;;;;1.48;1.37;;;;;;;1.49;63.67;101528.22;4362605;32;34393;-89
2022/12/20 05:59:48;;;;;;;0.43;0.43;;;;;;;1.63;63.29;101511.16;4365240;32;33428;-90
2022/12/20 06:02:41;;;;;;;0.88;0.88;;;;;;;1.93;61.90;101499.59;4356969;32;33205;-89
2022/12/20 06:05:11;;;;;;;1.23;1.17;;;;;;;1.72;62.53;101511.34;4339115;32;33756;-90
2022/12/20 06:07:41;;;;;;;1.92;1.83;;;;;;;1.69;62.64;101503.47;4365291;32;34323;-90
2022/12/20 06:10:10;;;;;;;7.03;2.80;;;;;;;1.29;63.86;101504.41;4319652;33;34202;-90
2022/12/20 06:12:39;;;;;;;0.45;0.45;;;;;;;1.63;63.04;101495.53;4343140;32;32643;-90
2022/12/20 06:15:09;;;;;;;0.35;0.35;;;;;;;1.79;61.98;101492.38;4342579;33;32734;-91
2022/12/20 06:17:39;;;;;;;1.15;1.08;;;;;;;1.43;63.46;101497.75;4338999;33;33705;-89
2022/12/20 06:20:08;;;;;;;1.23;1.23;;;;;;;1.54;63.16;101496.25;4334483;32;32844;-89
2022/12/20 06:22:39;;;;;;;1.05;1.05;;;;;;;1.60;63.03;101487.66;4342199;33;33169;-89
2022/12/20 06:25:16;;;;;;;1.50;1.40;;;;;;;1.62;62.98;101483.38;4329955;33;34720;-89
2022/12/20 06:27:45;;;;;;;9.23;1.50;;;;;;;1.52;63.09;101489.25;4343081;32;33053;-89
2022/12/20 06:30:15;;;;;;;2.15;2.05;;;;;;;1.96;61.77;101497.91;4320411;33;32105;-89
2022/12/20 06:32:45;;;;;;;1.10;1.10;;;;;;;1.88;61.68;101498.63;4344395;32;33118;-88
2022/12/20 06:35:13;;;;;;;1.95;1.85;;;;;;;1.81;62.02;101491.56;4332093;32;34413;-88
2022/12/20 06:37:43;;;;;;;1.83;1.70;;;;;;;1.71;62.32;101488.78;4346924;32;34377;-89
2022/12/20 06:40:12;;;;;;;1.75;1.58;;;;;;;1.59;62.33;101487.66;4337119;33;34787;-90
2022/12/20 06:42:44;;;;;;;2.42;2.28;;;;;;;1.66;62.62;101490.41;4343505;32;32231;-90
2022/12/20 06:45:15;;;;;;;2.65;2.45;;;;;;;1.72;62.24;101485.31;4329516;32;33452;-90
2022/12/20 06:47:44;;;;;;;2.17;2.08;;;;;;;1.91;61.30;101480.47;4328747;32;33347;-90
2022/12/20 06:50:18;;;;;;;1.70;1.65;;;;;;;1.65;62.20;101483.44;4308711;33;32800;-87
2022/12/20 06:52:47;;;;;;;1.37;1.35;;;;;;;1.44;62.79;101477.81;4331266;32;32320;-84
2022/12/20 06:55:15;;;;;;;1.60;1.60;;;;;;;1.64;62.44;101468.66;4358994;32;33654;-84
2022/12/20 06:57:46;;;;;;;1.35;1.35;;;;;;;1.86;61.78;101463.87;4324618;32;33584;-84
2022/12/20 07:00:18;;;;;;;1.42;1.02;;;;;;;1.46;63.09;101468.28;4354452;32;34825;-83
2022/12/20 07:02:47;;;;;;;0.10;0.10;;;;;;;1.43;63.35;101470.84;4342712;32;34345;-84
2022/12/20 07:05:17;;;;;;;3.67;1.90;;;;;;;1.45;63.00;101464.81;4342213;32;33743;-83
2022/12/20 07:07:46;;;;;;;1.35;1.35;;;;;;;1.40;63.55;101460.37;4372484;32;34713;-84
2022/12/20 07:10:15;;;;;;;0.80;0.80;;;;;;;1.11;64.67;101478.84;4343163;32;33467;-84
2022/12/20 07:12:45;;;;;;;0.62;0.62;;;;;;;0.94;64.93;101470.66;4356381;32;32614;-84
2022/12/20 07:15:16;;;;;;;2.12;1.55;;;;;;;1.59;63.56;101461.59;4373631;32;32518;-84
2022/12/20 07:17:47;;;;;;;0.62;0.62;;;;;;;0.95;65.57;101462.03;4338759;32;32914;-84
2022/12/20 07:20:15;;;;;;;3.55;3.35;;;;;;;1.08;65.22;101464.91;4354134;32;33478;-84
2022/12/20 07:22:47;;;;;;;3.97;2.33;;;;;;;0.72;66.63;101458.94;4355135;32;33204;-84
2022/12/20 07:25:18;;;;;;;29.70;1.37;;;;;;;1.33;64.66;101450.66;4355664;32;33554;-84
2022/12/20 07:27:51;;;;;;;3.03;2.83;;;;;;;1.57;63.56;101460.69;4332376;32;33587;-84
2022/12/20 07:30:22;;;;;;;2.50;2.30;;;;;;;1.24;64.53;101475.69;4346016;32;33231;-83
2022/12/20 07:32:52;;;;;;;0.10;0.10;;;;;;;1.60;63.44;101485.06;4365177;32;31881;-84
2022/12/20 07:35:25;;;;;;;1.27;1.27;;;;;;;1.40;64.07;101486.41;4366189;32;32869;-83
2022/12/20 07:37:54;;;;;;;2.37;2.27;;;;;;;1.31;64.32;101488.81;4373684;32;34611;-84
2022/12/20 07:40:25;;;;;;;1.62;1.52;;;;;;;1.75;63.27;101477.53;4371810;32;33697;-83
2022/12/20 07:42:55;;;;;;;;;;;;;;;1.68;63.39;101480.03;4343428;32;33562;-84
2022/12/20 07:45:28;;;;;;;1.60;1.50;;;;;;;1.69;63.25;101469.62;4355902;32;33498;-84
2022/12/20 07:48:04;;;;;;;0.90;0.90;;;;;;;1.78;62.81;101472.41;4356210;32;36262;-84
2022/12/20 07:50:42;;;;;;;1.17;1.17;;;;;;;1.91;62.34;101464.81;4351932;32;33760;-84
2022/12/20 07:53:11;;;;;;;3.25;3.03;;;;;;;1.58;63.47;101471.16;4372606;32;33201;-88
2022/12/20 07:55:49;;;;;;;2.47;0.50;;;;;;;1.67;62.99;101460.03;4356306;32;32483;-89
2022/12/20 07:58:19;;;;;;;0.20;0.20;;;;;;;1.62;62.92;101456.47;4358898;32;34495;-90
2022/12/20 08:00:49;;;;;;;0.75;0.75;;;;;;;1.82;62.52;101454.25;4372319;32;33002;-88
2022/12/20 08:03:21;;;;;;;4.75;1.37;;;;;;;1.90;61.93;101455.22;4351666;32;32997;-85
2022/12/20 08:05:52;;;;;;;0.10;0.10;;;;;;;1.89;62.26;101448.28;4355604;32;32265;-85
2022/12/20 08:08:22;;;;;;;2.05;1.90;;;;;;;1.85;62.66;101443.84;4343914;32;33570;-85
2022/12/20 08:10:51;;;;;;;0.55;0.55;;;;;;;1.72;62.46;101446.25;4344127;32;33252;-85
2022/12/20 08:13:22;;;;;;;2.47;1.80;;;;;;;1.46;63.45;101426.63;4355843;32;33785;-85
2022/12/20 08:15:50;;;;;;;1.42;1.33;;;;;;;1.66;63.04;101416.59;4340140;32;34993;-85
2022/12/20 08:20:57;;;;;;;0.45;0.28;;;;;;;1.54;63.64;101420.75;4354608;32;33698;-86
2022/12/20 08:23:25;;;;;;;2.42;2.33;;;;;;;1.36;63.71;101419.50;4343620;32;32337;-85
2022/12/20 08:25:54;;;;;;;1.33;1.33;;;;;;;1.59;63.72;101426.03;4370012;32;31956;-85
2022/12/20 08:28:23;;;;;;;2.20;2.10;;;;;;;1.90;62.75;101426.56;4340098;33;35222;-84
2022/12/20 08:31:06;;;;;;;2.60;1.50;;;;;;;1.83;62.64;101429.94;4356362;32;32908;-85
2022/12/20 08:33:40;;;;;;;1.83;1.73;;;;;;;2.23;61.34;101419.34;4369304;32;33952;-85
2022/12/20 08:36:12;;;;;;;0.40;0.40;;;;;;;1.87;62.02;101421.34;4344307;32;32539;-85
2022/12/20 08:38:45;;;;;;;6.50;4.18;;;;;;;1.91;61.90;101423.16;4355194;32;33915;-85
2022/12/20 08:41:15;;;;;;;1.60;1.50;;;;;;;2.26;60.99;101424.59;4341367;32;33940;-85
2022/12/20 08:43:44;;;;;;;1.65;1.55;;;;;;;2.29;61.23;101423.78;4346477;32;33061;-85
2022/12/20 08:46:14;;;;;;;0.40;0.40;;;;;;;2.41;60.73;101416.13;4359713;32;33230;-85
2022/12/20 08:48:42;;;;;;;2.37;2.17;;;;;;;2.31;61.45;101417.72;4326875;32;33388;-85
2022/12/20 08:51:12;;;;;;;2.53;1.45;;;;;;;2.56;60.30;101405.06;4354673;32;32861;-86
2022/12/20 08:53:42;;;;;;;1.10;1.10;;;;;;;2.52;60.17;101404.16;4369828;32;33459;-85
2022/12/20 08:56:13;;;;;;;7.82;2.28;;;;;;;1.89;62.47;101410.06;4348698;32;30714;-85
2022/12/20 08:58:47;;;;;;;1.80;1.70;;;;;;;2.23;61.02;101406.34;4367710;32;33427;-86
2022/12/20 09:01:21;;;;;;;0.20;0.20;;;;;;;2.14;61.31;101408.78;4330169;32;31994;-85
2022/12/20 09:03:52;;;;;;;0.00;0.00;;;;;;;2.61;60.01;101407.75;4370107;32;32074;-85
2022/12/20 09:06:22;;;;;;;1.70;1.60;;;;;;;2.51;60.19;101406.72;4358495;32;32910;-86
2022/12/20 09:08:54;;;;;;;0.50;0.50;;;;;;;2.49;60.38;101409.31;4353730;32;33691;-85
2022/12/20 09:11:24;;;;;;;3.80;3.50;;;;;;;2.85;59.37;101420.25;4348118;32;32924;-85
2022/12/20 09:13:56;;;;;;;2.62;2.45;;;;;;;2.98;58.83;101420.44;4326622;32;32403;-85
2022/12/20 09:16:29;;;;;;;2.23;2.13;;;;;;;3.16;58.25;101425.03;4341563;32;33282;-85
2022/12/20 09:19:05;;;;;;;0.20;0.20;;;;;;;3.07;58.87;101419.69;4366333;32;34492;-85
2022/12/20 09:21:34;;;;;;;0.20;0.20;;;;;;;3.49;57.34;101405.38;4344828;32;35212;-85
2022/12/20 09:24:04;;;;;;;1.05;1.05;;;;;;;3.78;56.39;101416.13;4329559;32;32706;-85
2022/12/20 09:26:34;;;;;;;2.22;2.03;;;;;;;3.30;57.28;101425.19;4343886;32;33160;-85
2022/12/20 09:29:04;;;;;;;2.78;2.58;;;;;;;2.97;58.38;101425.62;4349264;32;31456;-85
2022/12/20 09:31:32;;;;;;;0.05;0.05;;;;;;;3.10;58.05;101409.28;4343440;32;34371;-85
2022/12/20 09:34:02;;;;;;;1.20;1.15;;;;;;;3.12;58.14;101401.47;4350840;32;33589;-85
2022/12/20 09:36:30;;;;;;;2.22;1.40;;;;;;;3.05;57.83;101385.75;4349758;32;34233;-84
2022/12/20 09:38:59;;;;;;;2.92;2.12;;;;;;;2.84;58.87;101382.84;4346133;32;36633;-84
2022/12/20 09:41:37;;;;;;;2.50;1.08;;;;;;;2.82;59.87;101376.75;4363200;32;33095;-84
2022/12/20 09:44:14;;;;;;;0.13;0.13;;;;;;;3.57;56.54;101375.00;4342833;32;32132;-84
2022/12/20 09:46:43;;;;;;;0.55;0.55;;;;;;;3.24;57.57;101352.03;4364433;32;34529;-84
2022/12/20 09:49:18;;;;;;;4.28;3.90;;;;;;;3.03;57.89;101355.25;4344345;32;34059;-84
2022/12/20 09:52:09;;;;;;;1.92;1.50;;;;;;;3.18;57.92;101355.47;4349800;32;33999;-86
2022/12/20 09:55:05;;;;;;;1.15;1.15;;;;;;;3.14;57.52;101361.50;4362065;32;33525;-85
2022/12/20 09:57:58;;;;;;;0.75;0.75;;;;;;;3.55;56.74;101364.53;4360437;32;33731;-86
2022/12/20 10:00:29;;;;;;;0.20;0.20;;;;;;;3.92;55.97;101357.03;4352559;32;32890;-85
2022/12/20 10:03:02;;;;;;;3.50;3.17;;;;;;;3.97;55.51;101346.63;4362626;32;34602;-86
2022/12/20 10:05:44;;;;;;;1.33;1.33;;;;;;;3.68;56.08;101362.03;4353019;32;34565;-86
2022/12/20 10:08:47;;;;;;;0.60;0.60;;;;;;;3.79;56.06;101353.44;4363194;32;34343;-86
2022/12/20 10:11:34;;;;;;;0.47;0.47;;;;;;;4.23;55.16;101342.47;4365122;32;32226;-86
2022/12/20 10:14:37;;;;;;;0.40;0.40;;;;;;;3.73;56.12;101344.69;4368531;32;32577;-85
2022/12/20 10:17:13;;;;;;;3.53;1.87;;;;;;;3.69;56.19;101349.00;4346503;32;32779;-86
2022/12/20 10:19:46;;;;;;;1.08;1.08;;;;;;;3.95;55.95;101330.06;4364978;32;33272;-86
2022/12/20 10:22:38;;;;;;;0.85;0.85;;;;;;;3.85;55.68;101343.06;4351075;32;33608;-85
2022/12/20 10:25:19;;;;;;;1.95;1.85;;;;;;;4.29;54.18;101337.28;4361373;32;34412;-85
2022/12/20 10:27:52;;;;;;;1.35;1.00;;;;;;;3.88;56.00;101346.53;4360932;32;33270;-86
2022/12/20 10:30:34;;;;;;;2.12;1.92;;;;;;;3.89;55.63;101336.09;4359494;32;32131;-86
2022/12/20 10:35:40;;;;;;;2.50;2.40;;;;;;;3.99;55.69;101305.72;4344431;32;30812;-85
2022/12/20 10:40:54;;;;;;;0.93;0.93;;;;;;;3.89;56.66;101304.75;4350980;32;32141;-88
2022/12/20 10:43:44;;;;;;;0.68;0.68;;;;;;;4.21;54.88;101297.13;4349732;32;33810;-90
2022/12/20 10:46:15;;;;;;;0.65;0.65;;;;;;;4.20;55.25;101299.75;4359233;32;32871;-93
2022/12/20 10:49:36;;;;;;;4.07;3.72;;;;;;;4.26;55.47;101282.34;4278006;33;33979;-92
2022/12/20 10:52:33;;;;;;;0.68;0.68;;;;;;;4.18;54.97;101278.81;4341114;32;35286;-91
2022/12/20 10:55:40;;;;;;;2.37;2.17;;;;;;;4.49;54.64;101282.47;4361064;32;33836;-92
2022/12/20 10:58:35;;;;;;;3.95;3.40;;;;;;;4.63;54.51;101272.06;4335708;33;33115;-93
2022/12/20 11:01:21;;;;;;;1.17;1.17;;;;;;;4.77;53.51;101262.53;4362605;32;32538;-92
2022/12/20 11:04:40;;;;;;;4.47;2.53;;;;;;;4.94;53.13;101251.22;4357686;32;33348;-92
2022/12/20 11:07:25;;;;;;;0.85;0.85;;;;;;;4.21;54.58;101263.13;4364991;32;33918;-93
2022/12/20 11:10:23;;;;;;;0.35;0.35;;;;;;;4.11;55.68;101250.87;4389605;32;34421;-93
2022/12/20 11:13:04;;;;;;;;;;;;;;;4.48;54.05;101243.22;4320451;33;32124;-92
2022/12/20 11:19:02;;;;;;;0.10;0.10;;;;;;;4.59;53.51;101221.47;4337696;33;32297;-92
2022/12/20 11:22:12;;;;;;;1.30;1.23;;;;;;;3.98;55.29;101222.91;4351775;32;33069;-92
2022/12/20 11:25:26;;;;;;;0.20;0.20;;;;;;;4.14;55.87;101211.69;4374076;32;33827;-92
2022/12/20 11:28:06;;;;;;;0.68;0.68;;;;;;;4.32;54.42;101222.25;4347102;32;33164;-94
2022/12/20 11:31:28;;;;;;;1.87;1.75;;;;;;;4.27;55.89;101230.91;4363329;32;33020;-93
2022/12/20 11:34:22;;;;;;;0.57;0.57;;;;;;;4.75;54.12;101217.19;4382589;32;32639;-92
2022/12/20 11:37:15;;;;;;;0.55;0.55;;;;;;;4.23;55.00;101227.44;4344688;32;33406;-92
2022/12/20 11:40:15;;;;;;;1.45;1.42;;;;;;;4.48;54.18;101217.06;4348149;32;33726;-92
2022/12/20 11:43:38;;;;;;;1.37;1.33;;;;;;;4.79;53.10;101215.41;4371565;32;33528;-93
2022/12/20 11:46:48;;;;;;;0.60;0.60;;;;;;;4.71;53.39;101210.19;4328690;33;34400;-90
2022/12/20 11:49:40;;;;;;;2.08;1.98;;;;;;;4.52;53.95;101209.25;4378229;32;32018;-93
2022/12/20 11:55:31;;;;;;;0.35;0.35;;;;;;;4.43;55.30;101196.13;4353399;32;33182;-91
2022/12/20 11:58:50;;;;;;;1.08;1.02;;;;;;;4.94;52.94;101197.16;4373261;32;32789;-92
2022/12/20 12:01:39;;;;;;;5.00;2.05;;;;;;;4.68;54.04;101210.16;4348491;32;31949;-92
2022/12/20 12:04:40;;;;;;;0.45;0.45;;;;;;;4.82;53.43;101187.50;4338696;32;33864;-92
2022/12/20 12:07:33;;;;;;;1.15;1.12;;;;;;;4.43;54.04;101196.13;4339397;33;33214;-91
2022/12/20 12:10:34;;;;;;;0.25;0.25;;;;;;;4.59;54.03;101184.84;4357977;32;34331;-91
2022/12/20 12:13:20;;;;;;;1.40;0.98;;;;;;;4.62;54.43;101168.28;4355061;32;33004;-93
2022/12/20 12:19:09;;;;;;;0.82;0.82;;;;;;;4.59;54.39;101176.13;4375937;32;32815;-91
2022/12/20 12:22:09;;;;;;;1.40;1.08;;;;;;;5.10;52.74;101177.09;4379257;32;32552;-92
2022/12/20 12:25:03;;;;;;;1.42;1.33;;;;;;;5.12;52.64;101170.97;4351678;32;32649;-92
2022/12/20 12:27:45;;;;;;;0.47;0.47;;;;;;;5.00;53.27;101162.25;4372273;32;31281;-91
2022/12/20 12:30:36;;;;;;;0.70;0.70;;;;;;;4.59;54.92;101163.03;4330812;33;32668;-90
2022/12/20 12:33:34;;;;;;;2.62;1.05;;;;;;;4.70;54.13;101163.97;4378174;32;32816;-92
2022/12/20 12:36:36;;;;;;;2.05;1.30;;;;;;;4.73;53.72;101158.72;4365659;32;32040;-92
2022/12/20 12:39:37;;;;;;;4.05;3.70;;;;;;;5.16;52.89;101164.00;4371924;32;33056;-91
2022/12/20 12:42:37;;;;;;;3.65;3.33;;;;;;;5.01;53.08;101137.81;4371770;32;32869;-91
2022/12/20 12:45:28;;;;;;;0.95;0.95;;;;;;;4.82;53.64;101140.41;4352869;32;33853;-91